Time;durP1;ratioP1;P1;durP2;ratioP2;P2;SDS_P1;SDS_P2;PMS_P1;PMS_P2;Temp;Humidity;BMP_temperature;BMP_pressure;BME280_temperature;BME280_humidity;BME280_pressure;Samples;Min_cycle;Max_cycle;Signal;HPM_P1;HPM_P2
2024/02/28 00:00:26;;;;;;;18.88;16.13;;;6.80;99.90;;;;;;5054725;28;20713;-57
2024/02/28 00:02:53;;;;;;;21.02;14.43;;;6.80;99.90;;;;;;5052305;28;20395;-57
2024/02/28 00:05:19;;;;;;;21.02;16.20;;;6.70;99.90;;;;;;5055945;28;20637;-58
2024/02/28 00:07:47;;;;;;;20.23;15.25;;;6.70;99.90;;;;;;5057816;28;20229;-60
2024/02/28 00:10:14;;;;;;;24.77;17.23;;;6.70;99.90;;;;;;5053990;28;20238;-58
2024/02/28 00:12:41;;;;;;;21.23;13.98;;;6.70;99.90;;;;;;5051700;28;20216;-58
2024/02/28 00:15:10;;;;;;;20.88;14.43;;;6.60;99.90;;;;;;5055231;28;20209;-57
2024/02/28 00:17:39;;;;;;;18.98;12.60;;;6.60;99.90;;;;;;5054345;28;20667;-59
2024/02/28 00:20:07;;;;;;;19.08;14.52;;;6.50;99.90;;;;;;5056486;28;20974;-59
2024/02/28 00:22:34;;;;;;;19.20;13.85;;;6.50;99.90;;;;;;5056555;28;20735;-60
2024/02/28 00:25:01;;;;;;;23.95;15.30;;;6.50;99.90;;;;;;5060159;28;20297;-56
2024/02/28 00:27:28;;;;;;;19.90;13.15;;;6.40;99.90;;;;;;5058831;28;20234;-59
2024/02/28 00:29:55;;;;;;;17.95;13.13;;;6.30;99.90;;;;;;5050795;28;20787;-60
2024/02/28 00:32:23;;;;;;;17.95;13.80;;;6.30;99.90;;;;;;5053179;28;20298;-60
2024/02/28 00:34:50;;;;;;;19.90;14.40;;;6.30;99.90;;;;;;5051704;28;20213;-61
2024/02/28 00:37:17;;;;;;;22.65;14.98;;;6.20;99.90;;;;;;5049463;28;20658;-59
2024/02/28 00:39:45;;;;;;;18.27;14.95;;;6.10;99.90;;;;;;5052769;28;20233;-60
2024/02/28 00:42:12;;;;;;;14.90;11.75;;;6.00;99.90;;;;;;5056867;28;20301;-59
2024/02/28 00:44:42;;;;;;;16.42;13.13;;;6.00;99.90;;;;;;5054107;28;20203;-58
2024/02/28 00:47:09;;;;;;;19.58;13.55;;;5.90;99.90;;;;;;5051909;28;20298;-59
2024/02/28 00:49:38;;;;;;;19.65;14.93;;;5.80;99.90;;;;;;5056042;28;20218;-60
2024/02/28 00:52:05;;;;;;;21.42;14.55;;;5.80;99.90;;;;;;5052502;28;20735;-58
2024/02/28 00:54:32;;;;;;;20.17;14.70;;;5.60;99.90;;;;;;5057063;28;20745;-60
2024/02/28 00:56:59;;;;;;;19.30;14.80;;;5.60;99.90;;;;;;5053678;28;20202;-59
2024/02/28 00:59:26;;;;;;;22.40;15.30;;;5.50;99.90;;;;;;5050401;28;20214;-57
2024/02/28 01:01:53;;;;;;;18.00;13.32;;;5.50;99.90;;;;;;5055564;28;20235;-57
2024/02/28 01:04:20;;;;;;;19.27;13.82;;;5.40;99.90;;;;;;5051634;28;20217;-58
2024/02/28 01:06:48;;;;;;;22.63;14.55;;;5.30;99.90;;;;;;5057788;28;20316;-56
2024/02/28 01:09:15;;;;;;;18.50;15.15;;;5.20;99.90;;;;;;5053472;28;20281;-59
2024/02/28 01:11:42;;;;;;;22.08;14.50;;;5.20;99.90;;;;;;5051419;28;20238;-59
2024/02/28 01:14:09;;;;;;;20.85;15.07;;;5.10;99.90;;;;;;5054317;28;20209;-59
2024/02/28 01:16:36;;;;;;;15.98;12.02;;;5.10;99.90;;;;;;5053258;28;20289;-58
2024/02/28 01:19:02;;;;;;;17.67;11.35;;;5.10;99.90;;;;;;5058730;28;20628;-60
2024/02/28 01:21:29;;;;;;;19.08;15.15;;;5.00;99.90;;;;;;5059355;28;20226;-60
2024/02/28 01:23:57;;;;;;;20.60;14.43;;;5.00;99.90;;;;;;5058465;28;20267;-59
2024/02/28 01:26:24;;;;;;;21.80;15.18;;;5.00;99.90;;;;;;5055826;28;20222;-60
2024/02/28 01:28:51;;;;;;;20.20;14.38;;;5.00;99.90;;;;;;5060977;28;20657;-60
2024/02/28 01:31:18;;;;;;;18.85;13.73;;;5.00;99.90;;;;;;5063223;28;20720;-59
2024/02/28 01:33:45;;;;;;;18.40;14.30;;;5.10;99.90;;;;;;5054391;28;20319;-59
2024/02/28 01:36:12;;;;;;;20.65;13.90;;;5.10;99.90;;;;;;5058409;28;20210;-59
2024/02/28 01:38:39;;;;;;;20.52;14.23;;;5.10;99.90;;;;;;5057577;28;20209;-59
2024/02/28 01:41:08;;;;;;;16.13;12.43;;;5.20;99.90;;;;;;5059372;28;20241;-57
2024/02/28 01:43:34;;;;;;;15.55;12.63;;;5.20;99.90;;;;;;5059526;28;20211;-59
2024/02/28 01:46:04;;;;;;;15.80;13.13;;;5.20;99.90;;;;;;5056053;28;20225;-59
2024/02/28 01:48:31;;;;;;;17.38;12.90;;;5.20;99.90;;;;;;5056865;28;20202;-61
2024/02/28 01:50:58;;;;;;;18.08;13.73;;;5.30;99.90;;;;;;5071265;28;20259;-58
2024/02/28 01:53:25;;;;;;;13.93;11.70;;;5.30;99.90;;;;;;5071144;28;20304;-60
2024/02/28 01:55:52;;;;;;;18.55;14.32;;;5.40;99.90;;;;;;5071717;28;20209;-59
2024/02/28 01:58:21;;;;;;;18.05;12.77;;;5.40;99.90;;;;;;5071714;28;20212;-58
2024/02/28 02:00:49;;;;;;;17.70;13.25;;;5.40;99.90;;;;;;5050732;28;20236;-56
2024/02/28 02:03:16;;;;;;;15.77;12.93;;;5.50;99.90;;;;;;5050998;28;20210;-58
2024/02/28 02:05:43;;;;;;;15.75;13.30;;;5.50;99.90;;;;;;5051448;28;20595;-58
2024/02/28 02:08:10;;;;;;;17.33;12.75;;;5.50;99.90;;;;;;5064343;28;20226;-58
2024/02/28 02:10:37;;;;;;;21.13;13.23;;;5.50;99.90;;;;;;5067483;28;20264;-61
2024/02/28 02:13:07;;;;;;;17.95;12.82;;;5.60;99.90;;;;;;5062673;28;20205;-59
2024/02/28 02:15:35;;;;;;;16.80;12.68;;;5.60;99.90;;;;;;5062911;28;20292;-57
2024/02/28 02:18:02;;;;;;;17.17;12.95;;;5.70;99.90;;;;;;5071533;28;20207;-57
2024/02/28 02:20:33;;;;;;;16.33;12.10;;;5.60;99.90;;;;;;5071125;28;20768;-57
2024/02/28 02:23:01;;;;;;;23.38;15.02;;;5.70;99.90;;;;;;5071074;28;20213;-57
2024/02/28 02:25:28;;;;;;;23.95;15.10;;;5.80;99.90;;;;;;5071401;28;20676;-58
2024/02/28 02:27:55;;;;;;;20.77;15.27;;;5.80;99.90;;;;;;5071341;28;20237;-59
2024/02/28 02:30:22;;;;;;;21.38;16.05;;;5.80;99.90;;;;;;5069901;28;20237;-60
2024/02/28 02:32:49;;;;;;;20.83;14.45;;;5.90;99.90;;;;;;5070855;28;20206;-58
2024/02/28 02:35:16;;;;;;;22.20;14.85;;;5.90;99.90;;;;;;5071008;28;20228;-60
2024/02/28 02:37:45;;;;;;;18.92;14.10;;;6.00;99.90;;;;;;5070948;28;20210;-58
2024/02/28 02:40:14;;;;;;;20.10;16.10;;;6.00;99.90;;;;;;5070913;28;20234;-59
2024/02/28 02:42:41;;;;;;;28.58;17.95;;;6.00;99.90;;;;;;5070181;28;20833;-59
2024/02/28 02:45:09;;;;;;;25.58;17.60;;;6.10;99.90;;;;;;5070737;28;20292;-59
2024/02/28 02:47:36;;;;;;;28.60;17.23;;;6.10;99.90;;;;;;5070541;28;20233;-58
2024/02/28 02:50:03;;;;;;;21.85;16.45;;;6.10;99.90;;;;;;5070668;28;20264;-57
2024/02/28 02:52:30;;;;;;;24.58;17.20;;;6.10;99.90;;;;;;5070238;28;20213;-58
2024/02/28 02:54:57;;;;;;;23.88;16.02;;;6.20;99.90;;;;;;5070678;28;20224;-57
2024/02/28 02:57:25;;;;;;;21.77;15.98;;;6.20;99.90;;;;;;5070862;28;20205;-59
2024/02/28 02:59:52;;;;;;;23.35;15.80;;;6.30;99.90;;;;;;5070397;28;20751;-60
2024/02/28 03:02:19;;;;;;;20.92;15.55;;;6.30;99.90;;;;;;5069842;28;20304;-58
2024/02/28 03:04:46;;;;;;;24.00;17.95;;;6.30;99.90;;;;;;5070861;28;20241;-56
2024/02/28 03:07:13;;;;;;;26.08;16.98;;;6.30;99.90;;;;;;5070420;28;20233;-60
2024/02/28 03:09:39;;;;;;;27.13;16.25;;;6.30;99.90;;;;;;5070106;28;20296;-58
2024/02/28 03:12:06;;;;;;;22.75;17.42;;;6.30;99.90;;;;;;5069517;28;20216;-60
2024/02/28 03:14:36;;;;;;;20.95;17.40;;;6.30;99.90;;;;;;5070170;28;20743;-60
2024/02/28 03:17:03;;;;;;;24.08;15.55;;;6.30;99.90;;;;;;5070424;28;20206;-58
2024/02/28 03:19:30;;;;;;;22.40;15.77;;;6.30;99.90;;;;;;5069862;28;20205;-59
2024/02/28 03:21:57;;;;;;;21.35;17.13;;;6.30;99.90;;;;;;5070184;28;20213;-57
2024/02/28 03:24:23;;;;;;;22.95;15.45;;;6.40;99.90;;;;;;5069457;28;20859;-58
2024/02/28 03:26:50;;;;;;;19.35;14.85;;;6.40;99.90;;;;;;5070069;28;20793;-60
2024/02/28 03:29:17;;;;;;;17.75;12.90;;;6.40;99.90;;;;;;5069548;28;20213;-57
2024/02/28 03:31:45;;;;;;;21.02;16.60;;;6.40;99.90;;;;;;5069798;28;20237;-56
2024/02/28 03:34:12;;;;;;;24.83;16.58;;;6.40;99.90;;;;;;5069543;28;20948;-58
2024/02/28 03:36:39;;;;;;;17.55;13.50;;;6.40;99.90;;;;;;5069889;28;20311;-59
2024/02/28 03:39:06;;;;;;;17.08;13.40;;;6.40;99.90;;;;;;5069528;28;20210;-59
2024/02/28 03:41:32;;;;;;;22.25;16.23;;;6.40;99.90;;;;;;5069373;28;20251;-60
2024/02/28 03:43:59;;;;;;;21.45;16.30;;;6.40;99.90;;;;;;5069018;28;20220;-58
2024/02/28 03:46:26;;;;;;;21.17;16.10;;;6.40;99.90;;;;;;5069793;28;20674;-58
2024/02/28 03:48:54;;;;;;;22.20;12.98;;;6.40;99.90;;;;;;5069572;28;20229;-58
2024/02/28 03:51:21;;;;;;;23.40;13.43;;;6.40;99.90;;;;;;5069508;28;20237;-57
2024/02/28 03:53:48;;;;;;;21.05;14.75;;;6.40;99.90;;;;;;5069106;28;20214;-57
2024/02/28 03:56:22;;;;;;;22.98;15.20;;;6.40;99.90;;;;;;5069226;28;20296;-56
2024/02/28 03:58:49;;;;;;;16.67;13.55;;;6.40;99.90;;;;;;5069298;28;20857;-58
2024/02/28 04:01:15;;;;;;;22.00;15.55;;;6.40;99.90;;;;;;5069205;28;20233;-60
2024/02/28 04:03:42;;;;;;;17.92;14.88;;;6.40;99.90;;;;;;5068735;28;20657;-58
2024/02/28 04:06:11;;;;;;;21.17;15.85;;;6.40;99.90;;;;;;5069482;28;20217;-59
2024/02/28 04:08:38;;;;;;;19.98;13.52;;;6.50;99.90;;;;;;5069136;28;20615;-59
2024/02/28 04:11:05;;;;;;;17.25;13.88;;;6.50;99.90;;;;;;5069014;28;20589;-57
2024/02/28 04:13:32;;;;;;;17.63;13.38;;;6.40;99.90;;;;;;5068863;28;20652;-60
2024/02/28 04:15:59;;;;;;;18.33;15.18;;;6.50;99.90;;;;;;5069317;28;20205;-59
2024/02/28 04:18:26;;;;;;;18.60;14.73;;;6.50;99.90;;;;;;5069308;28;20630;-58
2024/02/28 04:20:52;;;;;;;18.02;13.43;;;6.40;99.90;;;;;;5066184;28;20237;-59
2024/02/28 04:23:20;;;;;;;18.50;14.35;;;6.50;99.90;;;;;;5068354;28;20214;-59
2024/02/28 04:25:47;;;;;;;19.60;13.80;;;6.40;99.90;;;;;;5068987;28;20216;-59
2024/02/28 04:28:14;;;;;;;16.73;12.55;;;6.40;99.90;;;;;;5068826;28;20225;-58
2024/02/28 04:30:41;;;;;;;18.02;14.35;;;6.40;99.90;;;;;;5068466;28;20252;-57
2024/02/28 04:33:08;;;;;;;21.75;14.18;;;6.40;99.90;;;;;;5068219;28;20214;-60
2024/02/28 04:35:35;;;;;;;15.63;12.98;;;6.40;99.90;;;;;;5069192;28;20680;-57
2024/02/28 04:38:02;;;;;;;19.30;13.65;;;6.40;99.90;;;;;;5069232;28;20214;-60
2024/02/28 04:40:30;;;;;;;17.10;14.52;;;6.40;99.90;;;;;;5068784;28;20692;-59
2024/02/28 04:42:57;;;;;;;19.38;14.68;;;6.40;99.90;;;;;;5068401;28;20647;-58
2024/02/28 04:45:24;;;;;;;18.52;13.48;;;6.50;99.90;;;;;;5068738;28;20304;-60
2024/02/28 04:47:51;;;;;;;17.17;13.80;;;6.50;99.90;;;;;;5068318;28;20738;-60
2024/02/28 04:50:18;;;;;;;17.42;13.38;;;6.40;99.90;;;;;;5068666;28;20244;-59
2024/02/28 04:52:45;;;;;;;21.88;13.07;;;6.40;99.90;;;;;;5067624;28;20667;-59
2024/02/28 04:55:12;;;;;;;16.73;12.68;;;6.40;99.90;;;;;;5068681;28;20213;-60
2024/02/28 04:57:40;;;;;;;16.17;11.75;;;6.40;99.90;;;;;;5068646;28;20215;-58
2024/02/28 05:00:08;;;;;;;18.70;13.52;;;6.40;99.90;;;;;;5068487;28;20225;-58
2024/02/28 05:02:35;;;;;;;18.23;13.23;;;6.40;99.90;;;;;;5068115;28;20213;-59
2024/02/28 05:05:02;;;;;;;17.77;12.65;;;6.40;99.90;;;;;;5068772;28;20213;-61
2024/02/28 05:07:29;;;;;;;15.30;12.82;;;6.40;99.90;;;;;;5068673;28;20229;-58
2024/02/28 05:09:56;;;;;;;16.55;12.85;;;6.40;99.90;;;;;;5068525;28;20229;-60
2024/02/28 05:12:23;;;;;;;15.52;13.13;;;6.40;99.90;;;;;;5068029;28;20217;-60
2024/02/28 05:14:51;;;;;;;20.83;13.73;;;6.40;99.90;;;;;;5068583;28;20224;-59
2024/02/28 05:17:18;;;;;;;13.75;11.82;;;6.40;99.90;;;;;;5068771;28;20220;-57
2024/02/28 05:19:45;;;;;;;12.88;11.30;;;6.40;99.90;;;;;;5068448;28;20218;-58
2024/02/28 05:22:12;;;;;;;18.85;12.27;;;6.40;99.90;;;;;;5067995;28;20754;-59
2024/02/28 05:24:38;;;;;;;20.83;16.98;;;6.40;99.90;;;;;;5068434;28;20217;-58
2024/02/28 05:27:05;;;;;;;19.48;14.95;;;6.40;99.90;;;;;;5068510;28;20224;-54
2024/02/28 05:29:32;;;;;;;20.35;15.05;;;6.40;99.90;;;;;;5067872;28;20256;-59
2024/02/28 05:32:00;;;;;;;15.85;11.77;;;6.40;99.90;;;;;;5068393;28;20301;-58
2024/02/28 05:34:27;;;;;;;14.95;11.80;;;6.40;99.90;;;;;;5067618;28;20224;-59
2024/02/28 05:36:54;;;;;;;15.52;12.70;;;6.40;99.90;;;;;;5068270;28;20274;-59
2024/02/28 05:39:21;;;;;;;17.90;13.55;;;6.30;99.90;;;;;;5068033;28;20216;-58
2024/02/28 05:41:48;;;;;;;16.13;12.02;;;6.30;99.90;;;;;;5068340;28;20245;-59
2024/02/28 05:44:14;;;;;;;16.63;12.55;;;6.30;99.90;;;;;;5067870;28;20215;-61
2024/02/28 05:46:41;;;;;;;18.25;13.00;;;6.30;99.90;;;;;;5068603;28;20519;-58
2024/02/28 05:49:09;;;;;;;18.83;14.65;;;6.30;99.90;;;;;;5068180;28;20237;-59
2024/02/28 05:51:36;;;;;;;15.32;13.18;;;6.30;99.90;;;;;;5068197;28;20230;-58
2024/02/28 05:54:04;;;;;;;15.20;12.48;;;6.30;99.90;;;;;;5067659;28;20216;-59
2024/02/28 05:56:31;;;;;;;15.95;11.57;;;6.30;99.90;;;;;;5067929;28;20630;-60
2024/02/28 05:58:57;;;;;;;18.70;13.00;;;6.30;99.90;;;;;;5067750;28;20209;-58
2024/02/28 06:01:24;;;;;;;13.75;10.70;;;6.30;99.90;;;;;;5068296;28;20239;-59
2024/02/28 06:03:52;;;;;;;14.30;12.05;;;6.30;99.90;;;;;;5067496;28;20740;-60
2024/02/28 06:06:20;;;;;;;16.05;11.90;;;6.30;99.90;;;;;;5070918;28;20345;-59
2024/02/28 06:08:47;;;;;;;15.07;11.65;;;6.30;99.90;;;;;;5070317;28;20779;-60
2024/02/28 06:11:14;;;;;;;20.20;13.00;;;6.20;99.90;;;;;;5071005;28;20229;-59
2024/02/28 06:13:41;;;;;;;16.27;12.52;;;6.20;99.90;;;;;;5070809;28;20259;-58
2024/02/28 06:16:08;;;;;;;16.70;12.05;;;6.20;99.90;;;;;;5071569;28;20212;-60
2024/02/28 06:18:35;;;;;;;17.13;12.10;;;6.20;99.90;;;;;;5071899;28;20237;-57
2024/02/28 06:21:02;;;;;;;16.20;10.52;;;6.30;99.90;;;;;;5070955;28;20263;-60
2024/02/28 06:23:30;;;;;;;18.67;14.00;;;6.20;99.90;;;;;;5070620;28;20213;-59
2024/02/28 06:25:57;;;;;;;17.70;13.88;;;6.20;99.90;;;;;;5071370;28;20769;-58
2024/02/28 06:28:24;;;;;;;15.70;11.82;;;6.20;99.90;;;;;;5070991;28;20746;-60
2024/02/28 06:30:51;;;;;;;19.58;13.90;;;6.20;99.90;;;;;;5094588;22;20259;-64
2024/02/28 06:33:18;;;;;;;18.50;12.50;;;6.20;99.90;;;;;;5082162;28;20201;-63
2024/02/28 06:35:45;;;;;;;18.40;11.85;;;6.30;99.90;;;;;;5090953;28;20753;-63
2024/02/28 06:38:12;;;;;;;14.65;12.27;;;6.30;99.90;;;;;;5087352;28;20296;-63
2024/02/28 06:40:41;;;;;;;18.10;12.68;;;6.30;99.90;;;;;;5078996;28;20231;-63
2024/02/28 06:43:08;;;;;;;15.73;12.63;;;6.30;99.90;;;;;;5030743;28;20215;-63
2024/02/28 06:45:35;;;;;;;18.25;13.23;;;6.30;99.90;;;;;;5031152;28;20218;-63
2024/02/28 06:48:01;;;;;;;17.75;11.23;;;6.30;99.90;;;;;;5030868;28;20249;-63
2024/02/28 06:50:28;;;;;;;12.60;10.75;;;6.30;99.90;;;;;;5030871;28;20234;-63
2024/02/28 06:52:55;;;;;;;15.65;11.27;;;6.30;99.90;;;;;;5031325;28;20210;-63
2024/02/28 06:55:22;;;;;;;14.07;11.63;;;6.30;99.90;;;;;;5064319;28;20579;-63
2024/02/28 06:57:50;;;;;;;11.90;9.82;;;6.30;99.90;;;;;;5070662;28;20206;-63
2024/02/28 07:00:18;;;;;;;15.98;12.23;;;6.30;99.90;;;;;;5070268;28;20216;-63
2024/02/28 07:02:45;;;;;;;14.85;11.15;;;6.40;99.90;;;;;;5069775;28;20680;-63
2024/02/28 07:05:13;;;;;;;12.02;10.73;;;6.40;99.90;;;;;;5070284;28;20285;-63
2024/02/28 07:07:40;;;;;;;16.85;13.65;;;6.40;99.90;;;;;;5070313;28;20217;-63
2024/02/28 07:10:08;;;;;;;15.02;11.05;;;6.40;99.90;;;;;;5070107;28;20263;-63
2024/02/28 07:12:35;;;;;;;14.50;10.60;;;6.50;99.90;;;;;;5069768;28;20212;-63
2024/02/28 07:15:04;;;;;;;11.95;10.70;;;6.50;99.90;;;;;;5070248;28;20206;-63
2024/02/28 07:17:30;;;;;;;15.90;11.25;;;6.50;99.90;;;;;;5069862;28;20675;-63
2024/02/28 07:19:57;;;;;;;18.70;11.70;;;6.50;99.90;;;;;;5049193;28;20661;-63
2024/02/28 07:22:24;;;;;;;13.77;11.23;;;6.50;99.90;;;;;;5043321;28;20199;-63
2024/02/28 07:24:51;;;;;;;15.35;13.07;;;6.50;99.90;;;;;;5040110;28;20210;-63
2024/02/28 07:27:18;;;;;;;17.70;12.68;;;6.50;99.90;;;;;;5041468;28;20687;-63
2024/02/28 07:29:44;;;;;;;13.73;12.20;;;6.50;99.90;;;;;;5043359;28;20226;-63
2024/02/28 07:32:13;;;;;;;12.32;11.13;;;6.60;99.90;;;;;;5040682;28;20237;-63
2024/02/28 07:34:40;;;;;;;11.20;9.93;;;6.60;99.90;;;;;;5039355;28;20568;-63
2024/02/28 07:37:07;;;;;;;16.98;11.38;;;6.60;99.90;;;;;;5038317;28;20294;-63
2024/02/28 07:39:34;;;;;;;16.02;12.52;;;6.60;99.90;;;;;;5033860;28;20218;-63
2024/02/28 07:42:01;;;;;;;15.15;11.90;;;6.60;99.90;;;;;;5029807;28;20689;-63
2024/02/28 07:44:30;;;;;;;15.27;10.98;;;6.60;99.90;;;;;;5029123;28;21016;-63
2024/02/28 07:46:57;;;;;;;12.77;11.00;;;6.60;99.90;;;;;;5029674;28;20257;-63
2024/02/28 07:49:26;;;;;;;11.68;10.48;;;6.70;99.90;;;;;;5029216;28;20238;-63
2024/02/28 07:51:52;;;;;;;14.68;10.63;;;6.60;99.90;;;;;;5029548;28;20233;-63
2024/02/28 07:54:19;;;;;;;13.60;12.25;;;6.70;99.90;;;;;;5029398;28;20217;-63
2024/02/28 07:56:46;;;;;;;15.05;12.00;;;6.70;99.90;;;;;;5029393;28;20211;-63
2024/02/28 07:59:13;;;;;;;14.35;9.20;;;6.80;99.90;;;;;;5029111;28;20217;-63
2024/02/28 08:01:40;;;;;;;13.27;9.68;;;6.80;99.90;;;;;;5027771;28;20235;-63
2024/02/28 08:04:06;;;;;;;12.55;10.40;;;6.80;99.90;;;;;;5034189;28;20215;-63
2024/02/28 08:06:35;;;;;;;12.55;10.07;;;6.80;99.90;;;;;;5063742;28;20223;-63
2024/02/28 08:09:04;;;;;;;14.35;9.85;;;6.80;99.90;;;;;;5050252;28;20231;-63
2024/02/28 08:11:31;;;;;;;11.90;9.68;;;6.90;99.90;;;;;;5046468;28;20226;-63
2024/02/28 08:13:57;;;;;;;13.30;10.10;;;6.90;99.90;;;;;;5037947;28;20302;-63
2024/02/28 08:16:24;;;;;;;12.90;9.43;;;6.90;99.90;;;;;;5042735;28;20547;-63
2024/02/28 08:18:51;;;;;;;15.98;10.02;;;6.90;99.90;;;;;;5037874;28;20706;-63
2024/02/28 08:21:18;;;;;;;11.90;10.15;;;6.90;99.90;;;;;;5036732;28;20225;-63
2024/02/28 08:23:47;;;;;;;11.13;9.52;;;6.90;99.90;;;;;;5032428;28;20214;-63
2024/02/28 08:26:14;;;;;;;9.25;8.40;;;7.00;99.90;;;;;;5040468;28;20252;-63
2024/02/28 08:28:41;;;;;;;10.35;9.30;;;7.00;99.90;;;;;;5047732;28;20230;-63
2024/02/28 08:31:07;;;;;;;9.60;8.60;;;7.10;99.90;;;;;;5047862;28;20229;-63
2024/02/28 08:33:34;;;;;;;12.40;9.90;;;7.10;99.90;;;;;;5048155;28;20206;-63
2024/02/28 08:36:01;;;;;;;9.57;8.50;;;7.20;99.90;;;;;;5045904;28;20214;-63
2024/02/28 08:38:28;;;;;;;13.40;10.80;;;7.20;99.90;;;;;;5029581;28;20210;-64
2024/02/28 08:40:56;;;;;;;10.68;9.38;;;7.20;99.90;;;;;;5042025;28;20258;-63
2024/02/28 08:43:23;;;;;;;10.38;9.30;;;7.30;99.90;;;;;;5042474;28;20724;-63
2024/02/28 08:45:51;;;;;;;11.73;8.73;;;7.30;99.90;;;;;;5034041;28;20214;-63
2024/02/28 08:48:18;;;;;;;11.15;8.95;;;7.30;99.90;;;;;;5048556;28;20209;-63
2024/02/28 08:50:45;;;;;;;10.90;8.48;;;7.30;99.90;;;;;;5047849;28;20234;-63
2024/02/28 08:53:12;;;;;;;10.60;9.43;;;7.40;99.90;;;;;;5044285;28;20202;-63
2024/02/28 08:55:39;;;;;;;10.38;9.27;;;7.40;99.90;;;;;;5061090;28;20664;-63
2024/02/28 08:58:07;;;;;;;9.35;7.75;;;7.50;99.90;;;;;;5041744;28;20206;-63
2024/02/28 09:00:34;;;;;;;9.43;8.52;;;7.50;99.90;;;;;;5047499;28;20217;-63
2024/02/28 09:03:01;;;;;;;11.98;8.63;;;7.50;99.90;;;;;;5045544;28;20217;-63
2024/02/28 09:05:28;;;;;;;10.45;8.73;;;7.60;99.90;;;;;;5048172;28;20215;-63
2024/02/28 09:07:57;;;;;;;10.25;8.07;;;7.60;99.90;;;;;;5048170;28;20571;-63
2024/02/28 09:10:24;;;;;;;9.30;7.57;;;7.60;99.90;;;;;;5039308;28;20227;-63
2024/02/28 09:12:51;;;;;;;8.40;7.07;;;7.70;99.90;;;;;;5027615;28;20219;-63
2024/02/28 09:15:20;;;;;;;8.35;7.55;;;7.80;99.90;;;;;;5028549;28;20313;-63
2024/02/28 09:17:47;;;;;;;10.07;8.63;;;7.80;99.90;;;;;;5034125;28;20220;-63
2024/02/28 09:20:15;;;;;;;9.10;8.20;;;8.00;99.90;;;;;;5044164;28;20206;-63
2024/02/28 09:22:41;;;;;;;10.75;8.02;;;8.20;99.90;;;;;;5047378;28;20206;-63
2024/02/28 09:25:09;;;;;;;11.77;9.15;;;8.30;99.90;;;;;;5047584;28;20210;-63
2024/02/28 09:27:36;;;;;;;9.95;8.95;;;8.30;99.90;;;;;;5048279;28;20211;-63
2024/02/28 09:30:03;;;;;;;8.63;7.67;;;8.40;99.90;;;;;;5047477;28;20589;-63
2024/02/28 09:32:32;;;;;;;9.25;7.68;;;8.40;99.90;;;;;;5047618;28;20455;-63
2024/02/28 09:34:58;;;;;;;8.80;7.90;;;8.50;99.90;;;;;;5047839;28;20302;-63
2024/02/28 09:37:25;;;;;;;9.30;8.27;;;8.60;99.90;;;;;;5047889;28;20451;-63
2024/02/28 09:39:52;;;;;;;8.17;7.30;;;8.70;99.90;;;;;;5049660;28;20301;-64
2024/02/28 09:42:20;;;;;;;10.20;8.53;;;8.80;99.90;;;;;;5048575;28;20555;-63
2024/02/28 09:44:47;;;;;;;7.70;7.03;;;9.00;99.90;;;;;;5051071;28;20448;-64
2024/02/28 09:47:14;;;;;;;11.10;8.60;;;9.10;99.90;;;;;;5031655;28;20452;-64
2024/02/28 09:49:43;;;;;;;8.17;7.33;;;9.30;99.90;;;;;;5030960;28;20497;-64
2024/02/28 09:52:10;;;;;;;9.47;8.50;;;9.50;99.90;;;;;;5030414;28;20469;-64
2024/02/28 09:54:37;;;;;;;7.60;6.90;;;9.60;99.90;;;;;;5036083;28;20439;-63
2024/02/28 09:57:06;;;;;;;8.50;7.80;;;9.80;99.90;;;;;;5042985;28;20459;-63
2024/02/28 09:59:33;;;;;;;10.50;9.60;;;9.90;99.90;;;;;;5042967;28;20458;-63
2024/02/28 10:02:03;;;;;;;9.53;7.40;;;10.00;99.90;;;;;;5037867;28;20477;-63
2024/02/28 10:04:30;;;;;;;12.13;8.63;;;10.10;99.90;;;;;;5045723;28;20445;-63
2024/02/28 10:06:58;;;;;;;11.10;8.97;;;10.20;99.90;;;;;;5032821;28;20536;-63
2024/02/28 10:09:26;;;;;;;10.33;8.20;;;10.30;99.90;;;;;;5047224;28;20484;-63
2024/02/28 10:11:53;;;;;;;9.77;8.27;;;10.30;99.90;;;;;;5034483;28;20508;-63
2024/02/28 10:14:20;;;;;;;9.83;8.10;;;10.40;99.90;;;;;;5046677;28;20456;-64
2024/02/28 10:16:47;;;;;;;9.13;7.80;;;10.50;99.90;;;;;;5037705;28;20451;-63
2024/02/28 10:19:13;;;;;;;9.77;8.07;;;10.60;99.90;;;;;;5039728;28;20449;-64
2024/02/28 10:21:40;;;;;;;7.83;7.03;;;10.70;99.90;;;;;;5044137;28;20555;-63
2024/02/28 10:24:09;;;;;;;9.13;7.10;;;10.80;99.90;;;;;;5031789;28;20537;-63
2024/02/28 10:26:43;;;;;;;6.47;5.77;;;11.00;99.90;;;;;;5036160;28;20543;-64
2024/02/28 10:29:11;;;;;;;7.43;6.73;;;11.00;99.90;;;;;;5040034;28;20455;-64
2024/02/28 10:31:38;;;;;;;7.70;6.47;;;11.10;99.90;;;;;;5043985;28;20487;-64
2024/02/28 10:34:06;;;;;;;5.93;5.33;;;11.10;99.90;;;;;;5033332;28;20454;-64
2024/02/28 10:36:33;;;;;;;8.63;6.37;;;11.20;99.90;;;;;;5042606;28;20517;-63
2024/02/28 10:39:02;;;;;;;7.30;6.60;;;11.30;99.90;;;;;;5038853;28;20445;-64
2024/02/28 10:41:32;;;;;;;8.00;7.20;;;11.40;99.90;;;;;;5037379;28;20892;-64
2024/02/28 10:44:00;;;;;;;7.53;6.93;;;11.50;99.90;;;;;;5046302;28;20445;-64
2024/02/28 10:46:27;;;;;;;6.77;6.10;;;11.60;99.90;;;;;;5033943;28;20455;-64
2024/02/28 10:48:54;;;;;;;7.23;6.10;;;11.70;99.90;;;;;;5041989;28;20458;-63
2024/02/28 10:51:25;;;;;;;7.87;7.17;;;11.80;99.90;;;;;;5039881;28;20499;-64
2024/02/28 10:54:08;;;;;;;8.13;7.23;;;12.10;99.70;;;;;;5033906;28;20859;-64
2024/02/28 10:56:36;;;;;;;10.43;8.87;;;12.10;99.30;;;;;;5035330;28;20821;-64
2024/02/28 10:59:06;;;;;;;11.97;8.00;;;12.30;99.70;;;;;;5040484;28;21352;-64
2024/02/28 11:01:33;;;;;;;7.00;6.37;;;12.40;99.90;;;;;;5043283;28;20471;-64
2024/02/28 11:04:00;;;;;;;8.80;8.00;;;12.50;99.30;;;;;;5032692;28;20456;-64
2024/02/28 11:06:27;;;;;;;9.20;6.63;;;12.60;99.90;;;;;;5045739;28;20442;-64
2024/02/28 11:08:56;;;;;;;6.97;6.37;;;12.80;99.30;;;;;;5037492;28;20452;-64
2024/02/28 11:11:23;;;;;;;9.37;7.60;;;13.00;98.20;;;;;;5036277;28;21074;-64
2024/02/28 11:13:54;;;;;;;7.13;6.47;;;13.00;97.80;;;;;;5035362;28;20449;-64
2024/02/28 11:16:28;;;;;;;7.60;7.03;;;13.00;97.40;;;;;;5047958;28;20447;-64
2024/02/28 11:18:55;;;;;;;7.27;6.63;;;13.00;97.10;;;;;;5048573;28;20452;-64
2024/02/28 11:21:25;;;;;;;7.07;6.47;;;12.90;97.80;;;;;;5048837;28;20464;-64
2024/02/28 11:23:52;;;;;;;7.23;6.53;;;12.90;98.30;;;;;;5048462;28;20449;-64
2024/02/28 11:26:20;;;;;;;7.00;6.43;;;12.90;96.80;;;;;;5047955;28;20456;-64
2024/02/28 11:28:47;;;;;;;7.00;6.30;;;12.80;97.40;;;;;;5047499;28;20491;-64
2024/02/28 11:31:16;;;;;;;9.50;6.93;;;12.70;97.50;;;;;;5048654;28;20493;-64
2024/02/28 11:33:43;;;;;;;7.23;6.53;;;12.70;97.60;;;;;;5048459;28;20457;-64
2024/02/28 11:36:12;;;;;;;7.53;6.70;;;12.90;97.00;;;;;;5043915;28;20449;-64
2024/02/28 11:38:39;;;;;;;6.80;6.20;;;12.90;96.50;;;;;;5048987;28;20448;-64
2024/02/28 11:41:06;;;;;;;6.80;5.53;;;12.90;97.40;;;;;;5048557;28;20551;-64
2024/02/28 11:43:34;;;;;;;5.50;5.00;;;13.00;97.20;;;;;;5047970;28;20445;-64
2024/02/28 11:46:01;;;;;;;8.30;7.40;;;13.10;96.50;;;;;;5048931;28;20445;-64
2024/02/28 11:48:30;;;;;;;5.77;5.37;;;13.30;95.90;;;;;;5048081;28;20447;-64
2024/02/28 11:50:58;;;;;;;6.10;5.60;;;13.30;95.60;;;;;;5034279;28;20500;-64
2024/02/28 11:53:26;;;;;;;5.73;5.00;;;13.30;95.60;;;;;;5041329;28;20460;-64
2024/02/28 11:55:55;;;;;;;6.80;5.50;;;13.30;96.10;;;;;;5048400;28;20453;-64
2024/02/28 11:58:22;;;;;;;8.40;6.00;;;13.30;95.80;;;;;;5039105;28;20885;-64
2024/02/28 12:00:50;;;;;;;6.93;5.63;;;13.30;97.10;;;;;;5038563;28;20471;-64
2024/02/28 12:03:21;;;;;;;6.60;6.00;;;13.40;95.40;;;;;;5047566;28;20455;-64
2024/02/28 12:05:50;;;;;;;5.23;4.60;;;13.50;95.60;;;;;;5046907;28;20460;-64
2024/02/28 12:08:19;;;;;;;5.77;5.27;;;13.60;96.30;;;;;;5048015;28;20459;-64
2024/02/28 12:10:46;;;;;;;4.30;4.00;;;13.80;94.80;;;;;;5038080;28;20908;-64
2024/02/28 12:13:16;;;;;;;6.07;5.47;;;13.90;95.60;;;;;;5040847;28;20459;-64
2024/02/28 12:15:43;;;;;;;6.30;5.70;;;14.10;95.60;;;;;;5042549;28;20981;-64
2024/02/28 12:18:11;;;;;;;6.27;5.70;;;14.30;95.50;;;;;;5046257;28;20844;-64
2024/02/28 12:20:38;;;;;;;7.73;4.97;;;14.40;94.60;;;;;;5047773;28;20565;-64
2024/02/28 12:23:08;;;;;;;7.73;6.70;;;14.60;94.30;;;;;;5046896;28;20444;-64
2024/02/28 12:25:36;;;;;;;9.13;7.00;;;14.80;94.00;;;;;;5048150;28;20457;-64
2024/02/28 12:28:05;;;;;;;7.63;6.30;;;14.90;92.80;;;;;;5046638;28;20444;-64
2024/02/28 12:33:12;;;;;;;6.07;5.57;;;15.10;93.50;;;;;;5083512;28;21010;-61
2024/02/28 12:35:39;;;;;;;5.30;4.80;;;15.40;93.50;;;;;;5071247;28;20456;-60
2024/02/28 12:38:06;;;;;;;6.03;4.90;;;15.50;92.90;;;;;;5065418;28;20448;-61
2024/02/28 12:40:31;;;;;;;6.10;5.70;;;15.70;93.00;;;;;;5064638;28;20440;-61
2024/02/28 12:42:58;;;;;;;5.50;5.03;;;15.80;91.50;;;;;;5064241;28;20539;-61